Observation data for Seagraves on 07/04/2020      Previous  Date  Next       Current Mesonet Observations  Soil Data  Daily Summary Page  Observations in Plain Language
KSGV 040500Z 11008G13KT 29/12 A3008 RMK A01 T02870115  RH  036%=      5-min Rain = 0
KSGV 040505Z 11008G13KT 29/11 A3008 RMK A01 T02860114  RH  036%=      5-min Rain = 0
KSGV 040510Z 12008G13KT 29/11 A3008 RMK A01 T02850112  RH  035%=      5-min Rain = 0
KSGV 040515Z 12008G13KT 28/11 A3008 RMK A01 T02840111  RH  035%=      5-min Rain = 0
KSGV 040520Z 12007KT 28/11 A3008 RMK A01 T02830110  RH  035%=      5-min Rain = 0
KSGV 040525Z 12007G12KT 28/11 A3008 RMK A01 T02820109  RH  035%=      5-min Rain = 0
KSGV 040530Z 13007KT 28/11 A3008 RMK A01 T02810109  RH  035%=      5-min Rain = 0
KSGV 040535Z 12006KT 28/11 A3008 RMK A01 T02790109  RH  036%=      5-min Rain = 0
KSGV 040540Z 12006KT 28/11 A3008 RMK A01 T02770108  RH  036%=      5-min Rain = 0
KSGV 040545Z 12006KT 28/11 A3008 RMK A01 T02760108  RH  036%=      5-min Rain = 0
KSGV 040550Z 12006KT 27/11 A3008 RMK A01 T02740109  RH  037%=      5-min Rain = 0
KSGV 040555Z 12006KT 27/11 A3008 RMK A01 T02720109  RH  038%=      5-min Rain = 0
KSGV 040600Z 12006KT 27/11 A3007 RMK A01 T02700110  RH  038%=      5-min Rain = 0
KSGV 040605Z 12006KT 27/11 A3007 RMK A01 T02680109  RH  038%=      5-min Rain = 0
KSGV 040610Z 13005KT 27/11 A3007 RMK A01 T02670108  RH  038%=      5-min Rain = 0
KSGV 040615Z 13006KT 27/11 A3007 RMK A01 T02670108  RH  038%=      5-min Rain = 0
KSGV 040620Z 13006KT 27/11 A3007 RMK A01 T02660107  RH  038%=      5-min Rain = 0
KSGV 040625Z 12006KT 27/11 A3007 RMK A01 T02660107  RH  038%=      5-min Rain = 0
KSGV 040630Z 13004KT 26/11 A3007 RMK A01 T02640107  RH  039%=      5-min Rain = 0
KSGV 040635Z 13004KT 26/11 A3007 RMK A01 T02620107  RH  039%=      5-min Rain = 0
KSGV 040640Z 13004KT 26/11 A3007 RMK A01 T02600107  RH  040%=      5-min Rain = 0
KSGV 040645Z 13004KT 26/11 A3007 RMK A01 T02580107  RH  040%=      5-min Rain = 0
KSGV 040650Z 13004KT 26/11 A3007 RMK A01 T02560108  RH  041%=      5-min Rain = 0
KSGV 040655Z 14004KT 25/11 A3007 RMK A01 T02540108  RH  041%=      5-min Rain = 0
KSGV 040700Z 14004KT 25/11 A3007 RMK A01 T02530108  RH  042%=      5-min Rain = 0
KSGV 040705Z 14004KT 25/11 A3007 RMK A01 T02520108  RH  042%=      5-min Rain = 0
KSGV 040710Z 15004KT 25/11 A3007 RMK A01 T02530107  RH  041%=      5-min Rain = 0
KSGV 040715Z 14005KT 25/11 A3007 RMK A01 T02530107  RH  041%=      5-min Rain = 0
KSGV 040720Z 15005KT 25/11 A3007 RMK A01 T02540107  RH  041%=      5-min Rain = 0
KSGV 040725Z 13004KT 25/11 A3007 RMK A01 T02520108  RH  042%=      5-min Rain = 0
KSGV 040730Z 13003KT 25/11 A3007 RMK A01 T02500108  RH  042%=      5-min Rain = 0
KSGV 040735Z 14003KT 25/11 A3007 RMK A01 T02480109  RH  043%=      5-min Rain = 0
KSGV 040740Z 14003KT 25/11 A3007 RMK A01 T02460109  RH  044%=      5-min Rain = 0
KSGV 040745Z 13003KT 25/11 A3007 RMK A01 T02450109  RH  044%=      5-min Rain = 0
KSGV 040750Z 12003KT 24/11 A3007 RMK A01 T02440110  RH  044%=      5-min Rain = 0
KSGV 040755Z 13002KT 24/11 A3007 RMK A01 T02430109  RH  045%=      5-min Rain = 0
KSGV 040800Z 14003KT 24/11 A3007 RMK A01 T02410109  RH  045%=      5-min Rain = 0
KSGV 040805Z 14002KT 24/11 A3007 RMK A01 T02380107  RH  045%=      5-min Rain = 0
KSGV 040810Z 14002KT 23/11 A3007 RMK A01 T02310113  RH  049%=      5-min Rain = 0
KSGV 040815Z 13002KT 23/12 A3007 RMK A01 T02270117  RH  052%=      5-min Rain = 0
KSGV 040820Z 12001KT 23/11 A3007 RMK A01 T02250113  RH  051%=      5-min Rain = 0
KSGV 040825Z 12002KT 22/11 A3007 RMK A01 T02230111  RH  051%=      5-min Rain = 0
KSGV 040830Z 12001KT 22/11 A3007 RMK A01 T02220113  RH  052%=      5-min Rain = 0
KSGV 040835Z 12000KT 22/12 A3007 RMK A01 T02200120  RH  055%=      5-min Rain = 0
KSGV 040840Z 00000KT 22/12 A3007 RMK A01 T02160117  RH  055%=      5-min Rain = 0
KSGV 040845Z 12000KT 22/12 A3007 RMK A01 T02150118  RH  056%=      5-min Rain = 0
KSGV 040850Z 19000KT 21/12 A3007 RMK A01 T02130124  RH  059%=      5-min Rain = 0
KSGV 040855Z 19000KT 21/13 A3008 RMK A01 T02110126  RH  061%=      5-min Rain = 0
KSGV 040900Z 19000KT 21/12 A3008 RMK A01 T02100124  RH  060%=      5-min Rain = 0
KSGV 040905Z 00000KT 21/13 A3008 RMK A01 T02090132  RH  064%=      5-min Rain = 0
KSGV 040910Z 00000KT 21/13 A3008 RMK A01 T02070130  RH  064%=      5-min Rain = 0
KSGV 040915Z 00000KT 21/12 A3008 RMK A01 T02070124  RH  061%=      5-min Rain = 0
KSGV 040920Z 00000KT 21/12 A3008 RMK A01 T02090121  RH  059%=      5-min Rain = 0
KSGV 040925Z 00000KT 21/12 A3007 RMK A01 T02130119  RH  057%=      5-min Rain = 0
KSGV 040930Z 19000KT 21/12 A3007 RMK A01 T02140119  RH  057%=      5-min Rain = 0
KSGV 040935Z 19001KT 22/12 A3007 RMK A01 T02150118  RH  056%=      5-min Rain = 0
KSGV 040940Z 19001KT 22/12 A3007 RMK A01 T02150117  RH  056%=      5-min Rain = 0
KSGV 040945Z 18001KT 21/12 A3007 RMK A01 T02140116  RH  056%=      5-min Rain = 0
KSGV 040950Z 16001KT 22/11 A3007 RMK A01 T02150114  RH  055%=      5-min Rain = 0
KSGV 040955Z 16000KT 22/11 A3007 RMK A01 T02160114  RH  054%=      5-min Rain = 0
KSGV 041000Z 00000KT 22/12 A3007 RMK A01 T02150117  RH  055%=      5-min Rain = 0
KSGV 041005Z 16000KT 21/12 A3007 RMK A01 T02140118  RH  056%=      5-min Rain = 0
KSGV 041010Z 16001KT 21/12 A3007 RMK A01 T02120118  RH  057%=      5-min Rain = 0
KSGV 041015Z 15002KT 21/11 A3008 RMK A01 T02080114  RH  057%=      5-min Rain = 0
KSGV 041020Z 00002KT 21/11 A3008 RMK A01 T02080112  RH  056%=      5-min Rain = 0
KSGV 041025Z 00001KT 21/11 A3008 RMK A01 T02070112  RH  056%=      5-min Rain = 0
KSGV 041030Z 00002KT 21/11 A3008 RMK A01 T02070113  RH  057%=      5-min Rain = 0
KSGV 041035Z 34004KT 21/12 A3009 RMK A01 T02070117  RH  058%=      5-min Rain = 0
KSGV 041040Z 32006KT 21/12 A3009 RMK A01 T02050116  RH  059%=      5-min Rain = 0
KSGV 041045Z 31006KT 20/12 A3009 RMK A01 T02040118  RH  060%=      5-min Rain = 0
KSGV 041050Z 31005KT 21/12 A3009 RMK A01 T02060123  RH  061%=      5-min Rain = 0
KSGV 041055Z 32005KT 21/12 A3009 RMK A01 T02070122  RH  061%=      5-min Rain = 0
KSGV 041100Z 33005KT 21/11 A301 RMK A01 T02060114  RH  057%=      5-min Rain = 0
KSGV 041105Z 32004KT 21/11 A301 RMK A01 T02120113  RH  055%=      5-min Rain = 0
KSGV 041110Z 32004KT 21/12 A3009 RMK A01 T02140115  RH  055%=      5-min Rain = 0
KSGV 041115Z 32006KT 22/12 A3009 RMK A01 T02170119  RH  056%=      5-min Rain = 0
KSGV 041120Z 31006KT 22/12 A3009 RMK A01 T02190119  RH  055%=      5-min Rain = 0
KSGV 041125Z 31005KT 22/12 A3009 RMK A01 T02190121  RH  056%=      5-min Rain = 0
KSGV 041130Z 31006KT 22/12 A3009 RMK A01 T02190121  RH  056%=      5-min Rain = 0
KSGV 041135Z 32006KT 22/12 A301 RMK A01 T02190122  RH  056%=      5-min Rain = 0
KSGV 041140Z 33006KT 22/12 A301 RMK A01 T02200119  RH  055%=      5-min Rain = 0
KSGV 041145Z 34006KT 22/12 A301 RMK A01 T02210116  RH  053%=      5-min Rain = 0
KSGV 041150Z 35006KT 22/12 A301 RMK A01 T02240117  RH  053%=      5-min Rain = 0
KSGV 041155Z 35005KT 23/12 A301 RMK A01 T02270119  RH  052%=      5-min Rain = 0
KSGV 041200Z 35005KT 23/12 A301 RMK A01 T02270119  RH  052%=      5-min Rain = 0
KSGV 041205Z 36006KT 23/12 A301 RMK A01 T02280116  RH  051%=      5-min Rain = 0
KSGV 041210Z 00005KT 23/12 A301 RMK A01 T02300115  RH  050%=      5-min Rain = 0
KSGV 041215Z 36006KT 23/11 A301 RMK A01 T02330114  RH  049%=      5-min Rain = 0
KSGV 041220Z 34005KT 23/12 A301 RMK A01 T02320115  RH  049%=      5-min Rain = 0
KSGV 041225Z 36005KT 23/11 A301 RMK A01 T02320114  RH  049%=      5-min Rain = 0
KSGV 041230Z 36005KT 23/11 A301 RMK A01 T02330114  RH  049%=      5-min Rain = 0
KSGV 041235Z 01006KT 23/11 A301 RMK A01 T02340114  RH  049%=      5-min Rain = 0
KSGV 041240Z 01007KT 23/12 A301 RMK A01 T02340115  RH  049%=      5-min Rain = 0
KSGV 041245Z 01007KT 23/12 A301 RMK A01 T02330118  RH  050%=      5-min Rain = 0
KSGV 041250Z 01008KT 23/12 A301 RMK A01 T02340124  RH  052%=      5-min Rain = 0
KSGV 041255Z 01008KT 24/13 A301 RMK A01 T02360132  RH  054%=      5-min Rain = 0
KSGV 041300Z 02007KT 24/14 A301 RMK A01 T02390137  RH  055%=      5-min Rain = 0
KSGV 041305Z 02006KT 24/14 A301 RMK A01 T02410140  RH  056%=      5-min Rain = 0
KSGV 041310Z 02007KT 24/14 A301 RMK A01 T02430142  RH  056%=      5-min Rain = 0
KSGV 041315Z 02008G13KT 25/14 A301 RMK A01 T02450144  RH  056%=      5-min Rain = 0
KSGV 041320Z 02008KT 25/15 A301 RMK A01 T02460146  RH  056%=      5-min Rain = 0
KSGV 041325Z 02008KT 25/15 A301 RMK A01 T02470146  RH  056%=      5-min Rain = 0
KSGV 041330Z 02009G14KT 25/15 A301 RMK A01 T02480147  RH  056%=      5-min Rain = 0
KSGV 041335Z 01011KT 25/15 A301 RMK A01 T02480148  RH  056%=      5-min Rain = 0
KSGV 041340Z 01009KT 25/15 A3011 RMK A01 T02480149  RH  056%=      5-min Rain = 0
KSGV 041345Z 01009KT 25/15 A3011 RMK A01 T02490150  RH  056%=      5-min Rain = 0
KSGV 041350Z 00011KT 25/15 A3011 RMK A01 T02500150  RH  056%=      5-min Rain = 0
KSGV 041355Z 01010KT 25/15 A3011 RMK A01 T02510150  RH  056%=      5-min Rain = 0
KSGV 041400Z 01009G14KT 25/15 A3011 RMK A01 T02530151  RH  056%=      5-min Rain = 0
KSGV 041405Z 01009KT 26/15 A3011 RMK A01 T02550151  RH  055%=      5-min Rain = 0
KSGV 041410Z 01008KT 26/15 A3011 RMK A01 T02560152  RH  055%=      5-min Rain = 0
KSGV 041415Z 01008KT 26/15 A3011 RMK A01 T02570152  RH  055%=      5-min Rain = 0
KSGV 041420Z 01009KT 26/15 A3011 RMK A01 T02580151  RH  054%=      5-min Rain = 0
KSGV 041425Z 01009KT 26/15 A3011 RMK A01 T02590151  RH  054%=      5-min Rain = 0
KSGV 041430Z 36010KT 26/15 A3011 RMK A01 T02610151  RH  053%=      5-min Rain = 0
KSGV 041435Z 35010KT 26/15 A3011 RMK A01 T02610152  RH  053%=      5-min Rain = 0
KSGV 041440Z 01008G13KT 27/15 A3011 RMK A01 T02650152  RH  052%=      5-min Rain = 0
KSGV 041445Z 35010KT 27/15 A3011 RMK A01 T02670152  RH  051%=      5-min Rain = 0
KSGV 041450Z 36009KT 27/15 A3012 RMK A01 T02670152  RH  051%=      5-min Rain = 0
KSGV 041455Z 35011KT 27/15 A3012 RMK A01 T02690151  RH  050%=      5-min Rain = 0
KSGV 041500Z 35010KT 27/15 A3011 RMK A01 T02710149  RH  050%=      5-min Rain = 0
KSGV 041505Z 01009KT 27/15 A3011 RMK A01 T02720148  RH  048%=      5-min Rain = 0
KSGV 041510Z 02008KT 28/15 A3011 RMK A01 T02760148  RH  048%=      5-min Rain = 0
KSGV 041515Z 01009KT 28/15 A3011 RMK A01 T02790149  RH  047%=      5-min Rain = 0
KSGV 041520Z 01010KT 28/15 A3011 RMK A01 T02800148  RH  047%=      5-min Rain = 0
KSGV 041525Z 01008KT 28/15 A3011 RMK A01 T02810149  RH  046%=      5-min Rain = 0
KSGV 041530Z 02009KT 29/15 A3011 RMK A01 T02890148  RH  044%=      5-min Rain = 0
KSGV 041535Z 01008KT 29/15 A3011 RMK A01 T02870147  RH  044%=      5-min Rain = 0
KSGV 041540Z 01007KT 29/15 A3011 RMK A01 T02870146  RH  044%=      5-min Rain = 0
KSGV 041545Z 00007KT 29/14 A301 RMK A01 T02880144  RH  043%=      5-min Rain = 0
KSGV 041550Z 01006KT 29/15 A301 RMK A01 T02890145  RH  043%=      5-min Rain = 0
KSGV 041555Z 03006KT 29/15 A301 RMK A01 T02940149  RH  043%=      5-min Rain = 0
KSGV 041600Z 02006KT 29/15 A301 RMK A01 T02930146  RH  043%=      5-min Rain = 0
KSGV 041605Z 01005KT 29/15 A301 RMK A01 T02920145  RH  042%=      5-min Rain = 0
KSGV 041610Z 01005KT 29/15 A3011 RMK A01 T02910145  RH  043%=      5-min Rain = 0
KSGV 041615Z 03005KT 29/15 A3011 RMK A01 T02940147  RH  042%=      5-min Rain = 0
KSGV 041620Z 02004KT 30/15 A301 RMK A01 T03040146  RH  040%=      5-min Rain = 0
KSGV 041625Z 35006G11KT 31/15 A301 RMK A01 T03060145  RH  039%=      5-min Rain = 0
KSGV 041630Z 32008KT 31/14 A301 RMK A01 T03060141  RH  038%=      5-min Rain = 0
KSGV 041635Z 29005G10KT 30/14 A301 RMK A01 T03040139  RH  038%=      5-min Rain = 0
KSGV 041640Z 34005KT 31/14 A3011 RMK A01 T03050141  RH  038%=      5-min Rain = 0
KSGV 041645Z 33003G9KT 31/14 A3011 RMK A01 T03080142  RH  038%=      5-min Rain = 0
KSGV 041650Z 32006KT 31/14 A3011 RMK A01 T03060141  RH  038%=      5-min Rain = 0
KSGV 041655Z 31004G9KT 30/14 A301 RMK A01 T03030140  RH  039%=      5-min Rain = 0
KSGV 041700Z 34003KT 31/14 A301 RMK A01 T03060140  RH  038%=      5-min Rain = 0
KSGV 041705Z 34006KT 32/14 A301 RMK A01 T03160142  RH  036%=      5-min Rain = 0
KSGV 041710Z 30006KT 32/14 A301 RMK A01 T03200139  RH  035%=      5-min Rain = 0
KSGV 041715Z 31005KT 32/14 A301 RMK A01 T03180137  RH  035%=      5-min Rain = 0
KSGV 041720Z 30005KT 32/14 A301 RMK A01 T03150137  RH  035%=      5-min Rain = 0
KSGV 041725Z 33003KT 31/14 A301 RMK A01 T03140136  RH  035%=      5-min Rain = 0
KSGV 041730Z 32004G9KT 31/14 A301 RMK A01 T03140138  RH  036%=      5-min Rain = 0
KSGV 041735Z 32003KT 32/14 A301 RMK A01 T03160135  RH  035%=      5-min Rain = 0
KSGV 041740Z 27002KT 32/14 A301 RMK A01 T03160135  RH  035%=      5-min Rain = 0
KSGV 041745Z 26003KT 32/14 A301 RMK A01 T03150135  RH  035%=      5-min Rain = 0
KSGV 041750Z 00001KT 32/14 A3009 RMK A01 T03200136  RH  034%=      5-min Rain = 0
KSGV 041755Z 30003KT 32/14 A3009 RMK A01 T03230135  RH  033%=      5-min Rain = 0
KSGV 041800Z 31002KT 33/14 A3009 RMK A01 T03290137  RH  033%=      5-min Rain = 0
KSGV 041805Z 27002KT 33/14 A3009 RMK A01 T03310137  RH  032%=      5-min Rain = 0
KSGV 041810Z 30005KT 33/14 A3009 RMK A01 T03290138  RH  033%=      5-min Rain = 0
KSGV 041815Z 30003KT 33/14 A3009 RMK A01 T03300139  RH  033%=      5-min Rain = 0
KSGV 041820Z 06003KT 33/14 A3009 RMK A01 T03290137  RH  033%=      5-min Rain = 0
KSGV 041825Z 06004KT 33/14 A3009 RMK A01 T03250136  RH  033%=      5-min Rain = 0
KSGV 041830Z 05003KT 32/13 A3009 RMK A01 T03240134  RH  033%=      5-min Rain = 0
KSGV 041835Z 10003KT 33/13 A3008 RMK A01 T03250134  RH  033%=      5-min Rain = 0
KSGV 041840Z 08004KT 32/13 A3008 RMK A01 T03240134  RH  033%=      5-min Rain = 0
KSGV 041845Z 05004KT 32/13 A3008 RMK A01 T03240133  RH  033%=      5-min Rain = 0
KSGV 041850Z 02003KT 33/13 A3008 RMK A01 T03260133  RH  032%=      5-min Rain = 0
KSGV 041855Z 06003KT 33/13 A3008 RMK A01 T03280131  RH  032%=      5-min Rain = 0
KSGV 041900Z 07001KT 33/13 A3007 RMK A01 T03280130  RH  031%=      5-min Rain = 0
KSGV 041905Z 00002KT 33/13 A3007 RMK A01 T03320130  RH  031%=      5-min Rain = 0
KSGV 041910Z 02002KT 33/13 A3007 RMK A01 T03320128  RH  030%=      5-min Rain = 0
KSGV 041915Z 11005KT 33/12 A3007 RMK A01 T03330124  RH  029%=      5-min Rain = 0
KSGV 041920Z 16002KT 33/12 A3006 RMK A01 T03330123  RH  029%=      5-min Rain = 0
KSGV 041925Z 02001KT 34/12 A3006 RMK A01 T03360122  RH  028%=      5-min Rain = 0
KSGV 041930Z 15002KT 34/12 A3006 RMK A01 T03400122  RH  028%=      5-min Rain = 0
KSGV 041935Z 10004KT 34/12 A3006 RMK A01 T03380121  RH  028%=      5-min Rain = 0
KSGV 041940Z 13005KT 34/12 A3006 RMK A01 T03390121  RH  028%=      5-min Rain = 0
KSGV 041945Z 17006KT 34/12 A3006 RMK A01 T03370121  RH  028%=      5-min Rain = 0
KSGV 041950Z 18004KT 33/12 A3005 RMK A01 T03320121  RH  029%=      5-min Rain = 0
KSGV 041955Z 11005G10KT 34/12 A3005 RMK A01 T03360122  RH  028%=      5-min Rain = 0
KSGV 042000Z 12005KT 33/12 A3005 RMK A01 T03340118  RH  028%=      5-min Rain = 0
KSGV 042005Z 15005KT 34/12 A3005 RMK A01 T03380119  RH  027%=      5-min Rain = 0
KSGV 042010Z 18006G11KT 35/12 A3005 RMK A01 T03470120  RH  026%=      5-min Rain = 0
KSGV 042015Z 20005KT 35/12 A3005 RMK A01 T03480120  RH  026%=      5-min Rain = 0
KSGV 042020Z 18006KT 36/12 A3005 RMK A01 T03570119  RH  025%=      5-min Rain = 0
KSGV 042025Z 18006KT 35/12 A3005 RMK A01 T03500117  RH  025%=      5-min Rain = 0
KSGV 042030Z 16004KT 35/12 A3004 RMK A01 T03470118  RH  026%=      5-min Rain = 0
KSGV 042035Z 11002G7KT 35/12 A3004 RMK A01 T03460120  RH  026%=      5-min Rain = 0
KSGV 042040Z 11006G11KT 36/12 A3004 RMK A01 T03570120  RH  025%=      5-min Rain = 0
KSGV 042045Z 14005G11KT 35/12 A3004 RMK A01 T03530120  RH  025%=      5-min Rain = 0
KSGV 042050Z 15005KT 35/12 A3004 RMK A01 T03480118  RH  026%=      5-min Rain = 0
KSGV 042055Z 12006KT 35/12 A3003 RMK A01 T03460119  RH  026%=      5-min Rain = 0
KSGV 042100Z 06005KT 34/12 A3003 RMK A01 T03430120  RH  027%=      5-min Rain = 0
KSGV 042105Z 06004KT 34/12 A3003 RMK A01 T03410118  RH  027%=      5-min Rain = 0
KSGV 042110Z 33002KT 34/12 A3002 RMK A01 T03410117  RH  027%=      5-min Rain = 0
KSGV 042115Z 17005G10KT 34/12 A3002 RMK A01 T03430116  RH  026%=      5-min Rain = 0
KSGV 042120Z 10003KT 34/12 A3002 RMK A01 T03420116  RH  026%=      5-min Rain = 0
KSGV 042125Z 15005G11KT 34/11 A3002 RMK A01 T03420113  RH  026%=      5-min Rain = 0
KSGV 042130Z 13007KT 34/11 A3002 RMK A01 T03440112  RH  025%=      5-min Rain = 0
KSGV 042135Z 14006KT 34/11 A3001 RMK A01 T03410112  RH  026%=      5-min Rain = 0
KSGV 042140Z 15005KT 34/11 A3001 RMK A01 T03430111  RH  025%=      5-min Rain = 0
KSGV 042145Z 13002KT 34/11 A3001 RMK A01 T03420110  RH  025%=      5-min Rain = 0
KSGV 042150Z 12003KT 34/11 A3001 RMK A01 T03430110  RH  025%=      5-min Rain = 0
KSGV 042155Z 12003KT 34/11 A30 RMK A01 T03440110  RH  025%=      5-min Rain = 0
KSGV 042200Z 11004KT 35/11 A30 RMK A01 T03470109  RH  024%=      5-min Rain = 0
KSGV 042205Z 13007KT 35/11 A30 RMK A01 T03510107  RH  024%=      5-min Rain = 0
KSGV 042210Z 09004KT 35/11 A2999 RMK A01 T03530109  RH  023%=      5-min Rain = 0
KSGV 042215Z 12007KT 36/11 A2999 RMK A01 T03560108  RH  023%=      5-min Rain = 0
KSGV 042220Z 16008KT 36/11 A2999 RMK A01 T03590106  RH  022%=      5-min Rain = 0
KSGV 042225Z 15007KT 36/11 A2999 RMK A01 T03600106  RH  022%=      5-min Rain = 0
KSGV 042230Z 16007KT 36/11 A2999 RMK A01 T03610107  RH  022%=      5-min Rain = 0
KSGV 042235Z 15005KT 36/11 A2999 RMK A01 T03560108  RH  023%=      5-min Rain = 0
KSGV 042240Z 18003KT 36/11 A2998 RMK A01 T03550109  RH  023%=      5-min Rain = 0
KSGV 042245Z 31002KT 36/11 A2998 RMK A01 T03580109  RH  023%=      5-min Rain = 0
KSGV 042250Z 10002KT 36/11 A2998 RMK A01 T03600109  RH  023%=      5-min Rain = 0
KSGV 042255Z 14004KT 36/11 A2997 RMK A01 T03590108  RH  023%=      5-min Rain = 0
KSGV 042300Z 14003KT 36/11 A2997 RMK A01 T03580108  RH  023%=      5-min Rain = 0
KSGV 042305Z 25003KT 36/11 A2997 RMK A01 T03560108  RH  023%=      5-min Rain = 0
KSGV 042310Z 19005G10KT 36/11 A2996 RMK A01 T03580109  RH  023%=      5-min Rain = 0
KSGV 042315Z 16007G12KT 36/11 A2996 RMK A01 T03550106  RH  023%=      5-min Rain = 0
KSGV 042320Z 16004G9KT 35/11 A2996 RMK A01 T03530106  RH  023%=      5-min Rain = 0
KSGV 042325Z 25003KT 36/11 A2996 RMK A01 T03550106  RH  023%=      5-min Rain = 0
KSGV 042330Z 23004KT 36/11 A2995 RMK A01 T03550107  RH  023%=      5-min Rain = 0
KSGV 042335Z 20004KT 36/11 A2995 RMK A01 T03560105  RH  023%=      5-min Rain = 0
KSGV 042340Z 18003KT 36/11 A2995 RMK A01 T03560105  RH  023%=      5-min Rain = 0
KSGV 042345Z 19003KT 36/11 A2995 RMK A01 T03580106  RH  023%=      5-min Rain = 0
KSGV 042350Z 23002KT 36/11 A2995 RMK A01 T03610108  RH  022%=      5-min Rain = 0
KSGV 042355Z 21001KT 36/11 A2995 RMK A01 T03610108  RH  022%=      5-min Rain = 0
KSGV 050000Z 08002KT 36/11 A2994 RMK A01 T03600108  RH  023%=      5-min Rain = 0
KSGV 050005Z 09002KT 36/11 A2994 RMK A01 T03570108  RH  023%=      5-min Rain = 0
KSGV 050010Z 18004KT 36/11 A2994 RMK A01 T03570108  RH  023%=      5-min Rain = 0
KSGV 050015Z 14005KT 35/11 A2995 RMK A01 T03540107  RH  023%=      5-min Rain = 0
KSGV 050020Z 16004KT 35/11 A2995 RMK A01 T03530107  RH  023%=      5-min Rain = 0
KSGV 050025Z 20003KT 35/11 A2995 RMK A01 T03530107  RH  023%=      5-min Rain = 0
KSGV 050030Z 12002KT 35/11 A2995 RMK A01 T03530107  RH  023%=      5-min Rain = 0
KSGV 050035Z 09004KT 35/11 A2995 RMK A01 T03510108  RH  024%=      5-min Rain = 0
KSGV 050040Z 08004KT 35/11 A2995 RMK A01 T03480107  RH  024%=      5-min Rain = 0
KSGV 050045Z 08002KT 35/11 A2995 RMK A01 T03480107  RH  024%=      5-min Rain = 0
KSGV 050050Z 11002KT 35/11 A2995 RMK A01 T03480107  RH  024%=      5-min Rain = 0
KSGV 050055Z 14003KT 35/11 A2995 RMK A01 T03480106  RH  024%=      5-min Rain = 0
KSGV 050100Z 15004KT 35/11 A2996 RMK A01 T03480106  RH  024%=      5-min Rain = 0
KSGV 050105Z 17005KT 35/11 A2996 RMK A01 T03480106  RH  024%=      5-min Rain = 0
KSGV 050110Z 15004KT 35/11 A2996 RMK A01 T03490106  RH  024%=      5-min Rain = 0
KSGV 050115Z 16005KT 35/11 A2996 RMK A01 T03470105  RH  024%=      5-min Rain = 0
KSGV 050120Z 16004KT 35/11 A2996 RMK A01 T03460105  RH  024%=      5-min Rain = 0
KSGV 050125Z 14005KT 35/11 A2996 RMK A01 T03450105  RH  024%=      5-min Rain = 0
KSGV 050130Z 13004KT 34/11 A2996 RMK A01 T03440105  RH  024%=      5-min Rain = 0
KSGV 050135Z 14003KT 34/11 A2996 RMK A01 T03430106  RH  024%=      5-min Rain = 0
KSGV 050140Z 14003KT 34/11 A2996 RMK A01 T03410106  RH  025%=      5-min Rain = 0
KSGV 050145Z 14003KT 34/11 A2996 RMK A01 T03380105  RH  025%=      5-min Rain = 0
KSGV 050150Z 13002KT 33/11 A2997 RMK A01 T03340107  RH  026%=      5-min Rain = 0
KSGV 050155Z 13002KT 33/11 A2997 RMK A01 T03320108  RH  026%=      5-min Rain = 0
KSGV 050200Z 13002KT 33/11 A2997 RMK A01 T03300109  RH  027%=      5-min Rain = 0
KSGV 050205Z 12002KT 33/11 A2997 RMK A01 T03270108  RH  027%=      5-min Rain = 0
KSGV 050210Z 11003KT 33/11 A2997 RMK A01 T03250109  RH  028%=      5-min Rain = 0
KSGV 050215Z 11003KT 32/11 A2997 RMK A01 T03230110  RH  028%=      5-min Rain = 0
KSGV 050220Z 11003KT 32/11 A2997 RMK A01 T03210110  RH  028%=      5-min Rain = 0
KSGV 050225Z 11003KT 32/11 A2997 RMK A01 T03200109  RH  028%=      5-min Rain = 0
KSGV 050230Z 11002KT 32/11 A2997 RMK A01 T03180108  RH  028%=      5-min Rain = 0
KSGV 050235Z 12003KT 32/11 A2997 RMK A01 T03160108  RH  029%=      5-min Rain = 0
KSGV 050240Z 12003KT 32/11 A2998 RMK A01 T03150106  RH  029%=      5-min Rain = 0
KSGV 050245Z 11003KT 31/11 A2998 RMK A01 T03140105  RH  028%=      5-min Rain = 0
KSGV 050250Z 11003KT 31/11 A2998 RMK A01 T03140105  RH  029%=      5-min Rain = 0
KSGV 050255Z 11003KT 31/11 A2998 RMK A01 T03120106  RH  029%=      5-min Rain = 0
KSGV 050300Z 12002KT 31/11 A2998 RMK A01 T03100107  RH  030%=      5-min Rain = 0
KSGV 050305Z 11003KT 31/11 A2998 RMK A01 T03070107  RH  030%=      5-min Rain = 0
KSGV 050310Z 11004KT 31/11 A2998 RMK A01 T03060107  RH  030%=      5-min Rain = 0
KSGV 050315Z 11005KT 31/11 A2998 RMK A01 T03060108  RH  030%=      5-min Rain = 0
KSGV 050320Z 12005KT 31/11 A2998 RMK A01 T03060106  RH  030%=      5-min Rain = 0
KSGV 050325Z 12004KT 31/11 A2998 RMK A01 T03050105  RH  030%=      5-min Rain = 0
KSGV 050330Z 13004KT 30/11 A2998 RMK A01 T03010106  RH  031%=      5-min Rain = 0
KSGV 050335Z 13004KT 30/11 A2998 RMK A01 T02970106  RH  032%=      5-min Rain = 0
KSGV 050340Z 13003KT 30/11 A2998 RMK A01 T02950108  RH  032%=      5-min Rain = 0
KSGV 050345Z 11003KT 29/11 A2998 RMK A01 T02940108  RH  033%=      5-min Rain = 0
KSGV 050350Z 11003KT 29/11 A2998 RMK A01 T02920110  RH  033%=      5-min Rain = 0
KSGV 050355Z 11003KT 29/11 A2999 RMK A01 T02890109  RH  034%=      5-min Rain = 0
KSGV 050400Z 11003KT 29/11 A2998 RMK A01 T02890110  RH  034%=      5-min Rain = 0
KSGV 050405Z 11003KT 29/11 A2998 RMK A01 T02870110  RH  035%=      5-min Rain = 0
KSGV 050410Z 12004KT 29/11 A2998 RMK A01 T02860110  RH  035%=      5-min Rain = 0
KSGV 050415Z 11004KT 29/11 A2998 RMK A01 T02870111  RH  035%=      5-min Rain = 0
KSGV 050420Z 11006KT 29/11 A2998 RMK A01 T02860110  RH  035%=      5-min Rain = 0
KSGV 050425Z 11005KT 29/11 A2998 RMK A01 T02850110  RH  035%=      5-min Rain = 0
KSGV 050430Z 12006KT 28/11 A2998 RMK A01 T02830108  RH  035%=      5-min Rain = 0
KSGV 050435Z 12006KT 28/11 A2997 RMK A01 T02820108  RH  035%=      5-min Rain = 0
KSGV 050440Z 11005KT 28/11 A2998 RMK A01 T02790109  RH  036%=      5-min Rain = 0
KSGV 050445Z 12005KT 28/11 A2998 RMK A01 T02780109  RH  036%=      5-min Rain = 0
KSGV 050450Z 12005KT 28/11 A2998 RMK A01 T02760109  RH  036%=      5-min Rain = 0
KSGV 050455Z 13005KT 28/11 A2998 RMK A01 T02750109  RH  037%=      5-min Rain = 0

Page generated in 0.0106 seconds.